Time;durP1;ratioP1;P1;durP2;ratioP2;P2;SDS_P1;SDS_P2;PMS_P1;PMS_P2;Temp;Humidity;BMP_temperature;BMP_pressure;BME280_temperature;BME280_humidity;BME280_pressure;Samples;Min_cycle;Max_cycle;Signal;HPM_P1;HPM_P2
2022/09/05 00:01:48;;;;;;;3.10;2.42;;;14.30;99.90;;;13.63;100.00;98580.00;5003875;28;20088;-68
2022/09/05 00:04:55;;;;;;;3.88;2.78;;;14.20;99.90;;;13.55;100.00;98583.75;5007422;28;20057;-68
2022/09/05 00:08:08;;;;;;;5.88;2.85;;;14.20;99.90;;;13.54;100.00;98591.63;5007474;28;20060;-68
2022/09/05 00:11:18;;;;;;;2.70;1.80;;;14.10;99.90;;;13.52;100.00;98591.69;5006601;28;20140;-68
2022/09/05 00:14:26;;;;;;;5.70;2.30;;;14.10;99.90;;;13.53;100.00;98588.19;4994114;28;20046;-68
2022/09/05 00:17:34;;;;;;;5.07;2.33;;;14.10;99.90;;;13.56;100.00;98595.03;5008771;28;20444;-67
2022/09/05 00:20:55;;;;;;;6.15;2.58;;;14.10;99.90;;;13.52;100.00;98591.69;5005878;28;20058;-67
2022/09/05 00:23:49;;;;;;;4.15;2.05;;;14.10;99.90;;;13.55;100.00;98578.53;5002910;28;20050;-68
2022/09/05 00:26:52;;;;;;;5.43;2.33;;;14.00;99.90;;;13.40;100.00;98576.50;5010663;28;20046;-69
2022/09/05 00:29:50;;;;;;;5.68;2.38;;;14.00;99.90;;;13.48;100.00;98576.22;5007284;28;20077;-68
2022/09/05 00:33:11;;;;;;;4.88;3.17;;;14.00;99.90;;;13.27;100.00;98568.25;5004278;28;20053;-68
2022/09/05 00:36:32;;;;;;;3.65;2.42;;;14.00;99.90;;;13.42;100.00;98569.50;5007080;28;20172;-68
2022/09/05 00:39:06;;;;;;;6.07;2.45;;;14.00;99.90;;;13.39;100.00;98567.00;5007014;28;20060;-68
2022/09/05 00:41:34;;;;;;;4.15;2.50;;;13.90;99.90;;;13.34;100.00;98561.97;5004539;28;20483;-68
2022/09/05 00:44:02;;;;;;;4.57;2.33;;;13.80;99.90;;;13.37;100.00;98555.78;5008192;28;20053;-68
2022/09/05 00:46:36;;;;;;;4.00;2.10;;;13.80;99.90;;;13.36;100.00;98549.72;5006257;28;20160;-68
2022/09/05 00:49:17;;;;;;;3.28;2.08;;;13.80;99.90;;;13.30;100.00;98544.72;5006514;28;20056;-68
2022/09/05 00:51:59;;;;;;;2.85;1.90;;;13.80;99.90;;;13.35;100.00;98549.78;5000281;28;20056;-68
2022/09/05 00:56:03;;;;;;;3.15;2.00;;;13.80;99.90;;;13.13;100.00;98545.31;5018722;28;20141;-68
2022/09/05 00:59:05;;;;;;;2.85;1.77;;;13.80;99.90;;;13.24;100.00;98551.91;4966389;28;20132;-69
2022/09/05 01:02:16;;;;;;;4.38;2.85;;;13.80;99.90;;;13.17;100.00;98549.50;4966767;28;20061;-69
2022/09/05 01:04:57;;;;;;;4.15;2.40;;;13.70;99.90;;;13.15;100.00;98553.94;5003619;28;20423;-67
2022/09/05 01:08:01;;;;;;;2.90;1.77;;;13.70;99.90;;;13.03;100.00;98557.00;5002349;28;20050;-70
2022/09/05 01:10:54;;;;;;;3.92;2.17;;;13.70;99.90;;;13.00;100.00;98557.13;5003119;28;20050;-67
2022/09/05 01:14:00;;;;;;;4.68;3.03;;;13.60;99.90;;;12.86;100.00;98568.03;5002367;28;20046;-67
2022/09/05 01:16:44;;;;;;;4.32;2.95;;;13.50;99.90;;;12.87;100.00;98567.13;5006604;28;20054;-68
2022/09/05 01:20:16;;;;;;;4.07;2.50;;;13.50;99.90;;;12.88;100.00;98581.00;5004955;28;20534;-68
2022/09/05 01:23:16;;;;;;;6.22;2.78;;;13.40;99.90;;;12.87;100.00;98582.78;5004917;28;20133;-68
2022/09/05 01:26:33;;;;;;;9.10;2.92;;;13.40;99.90;;;12.83;100.00;98585.53;5005226;28;20056;-67
2022/09/05 01:29:37;;;;;;;2.80;2.17;;;13.30;99.90;;;12.66;100.00;98596.56;5007876;28;20128;-67
2022/09/05 01:32:45;;;;;;;5.35;3.28;;;13.40;99.90;;;12.55;100.00;98600.38;5004506;28;20137;-67
2022/09/05 01:35:42;;;;;;;6.43;3.67;;;13.30;99.90;;;12.62;100.00;98602.78;5009855;28;20565;-68
2022/09/05 01:39:01;;;;;;;4.85;3.35;;;13.20;99.90;;;12.77;100.00;98610.91;5007084;28;20064;-68
2022/09/05 01:41:57;;;;;;;3.15;2.28;;;13.20;99.90;;;12.62;100.00;98606.22;5003836;28;20059;-68
2022/09/05 01:44:46;;;;;;;4.53;2.45;;;13.30;99.90;;;12.74;100.00;98611.00;5006077;28;20054;-68
2022/09/05 01:47:39;;;;;;;5.07;2.25;;;13.30;99.90;;;12.69;100.00;98609.47;5021561;28;20141;-68
2022/09/05 01:50:25;;;;;;;3.75;2.38;;;13.30;99.90;;;12.69;100.00;98607.72;5009257;28;20042;-66
2022/09/05 01:53:24;;;;;;;3.53;2.15;;;13.30;99.90;;;12.81;100.00;98608.19;5006165;28;20053;-68
2022/09/05 01:56:13;;;;;;;9.00;3.25;;;13.40;99.90;;;12.79;100.00;98615.22;5007872;28;20164;-68
2022/09/05 01:59:03;;;;;;;4.30;3.30;;;13.30;99.90;;;12.69;100.00;98609.47;5008906;28;21659;-68
2022/09/05 02:02:22;;;;;;;5.47;2.85;;;13.40;99.90;;;12.69;100.00;98610.31;5006690;28;20057;-68
2022/09/05 02:05:18;;;;;;;5.72;2.88;;;13.30;99.90;;;12.59;100.00;98608.94;5018035;28;20041;-68
2022/09/05 02:08:53;;;;;;;4.78;2.38;;;13.20;99.90;;;12.66;100.00;98615.66;5004765;28;20404;-68
2022/09/05 02:11:59;;;;;;;4.40;2.47;;;13.30;99.90;;;12.73;100.00;98613.69;5001555;28;20055;-68
2022/09/05 02:15:02;;;;;;;4.68;2.28;;;13.30;99.90;;;12.69;100.00;98612.94;5003305;28;20057;-68
2022/09/05 02:17:42;;;;;;;4.38;2.28;;;13.30;99.90;;;12.73;100.00;98614.53;5004911;28;20063;-67
2022/09/05 02:20:44;;;;;;;6.57;3.13;;;13.30;99.90;;;12.52;100.00;98608.31;5003222;28;20050;-67
2022/09/05 02:23:37;;;;;;;6.22;2.10;;;13.20;99.90;;;12.66;100.00;98607.84;5015901;28;20050;-68
2022/09/05 02:26:22;;;;;;;2.70;2.20;;;13.20;99.90;;;12.70;100.00;98618.97;4998971;28;20112;-67
2022/09/05 02:29:21;;;;;;;6.20;2.83;;;13.30;99.90;;;12.59;100.00;98615.88;5004978;28;20050;-69
2022/09/05 02:32:20;;;;;;;5.95;2.40;;;13.30;99.90;;;12.61;100.00;98607.13;5009494;28;20077;-67
2022/09/05 02:35:26;;;;;;;3.60;2.13;;;13.30;99.90;;;12.70;100.00;98612.03;5009633;28;20049;-68
2022/09/05 02:38:34;;;;;;;5.32;2.40;;;13.30;99.90;;;12.68;100.00;98607.75;5009819;28;20130;-68
2022/09/05 02:41:49;;;;;;;3.60;2.08;;;13.30;99.90;;;12.62;100.00;98610.59;5023697;28;20061;-68
2022/09/05 02:45:21;;;;;;;4.20;2.50;;;13.30;99.90;;;12.63;100.00;98609.69;5006281;28;20500;-68
2022/09/05 02:48:16;;;;;;;5.15;3.03;;;13.20;99.90;;;12.58;100.00;98612.44;5006793;28;20569;-68
2022/09/05 02:51:00;;;;;;;5.03;2.90;;;13.20;99.90;;;12.59;100.00;98615.88;5008148;28;20060;-68
2022/09/05 02:54:03;;;;;;;5.60;1.75;;;13.20;99.90;;;12.53;100.00;98620.41;5008110;28;20053;-68
2022/09/05 02:57:40;;;;;;;5.25;2.28;;;13.20;99.90;;;12.56;100.00;98615.09;5022168;28;20049;-69
2022/09/05 03:00:42;;;;;;;5.60;1.92;;;13.20;99.90;;;12.48;100.00;98621.47;5006963;28;20519;-68
2022/09/05 03:03:23;;;;;;;4.15;2.35;;;13.20;99.90;;;12.52;100.00;98628.25;5010812;28;20052;-68
2022/09/05 03:06:08;;;;;;;4.10;2.00;;;13.20;99.90;;;12.51;100.00;98622.22;5008449;28;20073;-68
2022/09/05 03:08:55;;;;;;;3.35;1.90;;;13.20;99.90;;;12.43;100.00;98621.63;5006808;28;20412;-68
2022/09/05 03:12:28;;;;;;;3.97;2.28;;;13.20;99.90;;;12.58;100.00;98620.25;4988398;28;20507;-67
2022/09/05 03:15:07;;;;;;;5.07;2.30;;;13.20;99.90;;;12.56;100.00;98616.84;5013617;28;20630;-68
2022/09/05 03:18:35;;;;;;;2.45;1.80;;;13.20;99.90;;;12.36;100.00;98617.50;5009721;28;20523;-68
2022/09/05 03:21:54;;;;;;;3.55;2.10;;;13.20;99.90;;;12.41;100.00;98625.19;5008607;28;20523;-68
2022/09/05 03:24:58;;;;;;;3.55;1.90;;;13.10;99.90;;;12.60;100.00;98635.84;5007616;28;20169;-68
2022/09/05 03:28:02;;;;;;;;;;;13.20;99.90;;;12.52;100.00;98625.66;5007760;28;20482;-68
2022/09/05 03:31:10;;;;;;;6.40;2.30;;;13.20;99.90;;;12.30;100.00;98626.38;5006745;28;20039;-68
2022/09/05 03:34:12;;;;;;;5.28;2.70;;;13.00;99.90;;;12.48;100.00;98631.91;5007815;28;20060;-68
2022/09/05 03:36:51;;;;;;;3.78;2.00;;;13.10;99.90;;;12.47;100.00;98638.84;5005406;28;20047;-68
2022/09/05 03:39:55;;;;;;;2.75;1.83;;;13.20;99.90;;;12.47;100.00;98643.19;5003819;28;20046;-68
2022/09/05 03:43:03;;;;;;;2.92;1.77;;;13.10;99.90;;;12.55;100.00;98644.66;5007042;28;20037;-68
2022/09/05 03:45:55;;;;;;;2.40;1.73;;;13.20;99.90;;;12.63;100.00;98648.75;5009151;28;20149;-68
2022/09/05 03:48:53;;;;;;;5.35;1.80;;;13.20;99.90;;;12.67;100.00;98643.38;5005999;28;20492;-67
2022/09/05 03:51:52;;;;;;;3.95;1.70;;;13.20;99.90;;;12.63;100.00;98640.94;5007087;28;20109;-67
2022/09/05 03:55:36;;;;;;;4.35;2.75;;;13.20;99.90;;;12.54;100.00;98642.09;5007148;28;20050;-68
2022/09/05 03:59:06;;;;;;;3.60;2.00;;;13.20;99.90;;;12.41;100.00;98636.47;5016163;28;20049;-67
2022/09/05 04:01:49;;;;;;;3.85;2.15;;;13.10;99.90;;;12.51;100.00;98656.06;5007400;28;20072;-67
2022/09/05 04:04:52;;;;;;;3.33;1.70;;;13.10;99.90;;;12.43;100.00;98655.50;5011774;28;20050;-68
2022/09/05 04:07:44;;;;;;;4.00;1.70;;;13.20;99.90;;;12.53;100.00;98654.28;5001564;28;20056;-68
2022/09/05 04:10:49;;;;;;;1.95;1.50;;;13.20;99.90;;;12.62;100.00;98670.50;5002750;28;20053;-67
2022/09/05 04:13:26;;;;;;;3.45;1.75;;;13.20;99.90;;;12.67;100.00;98666.81;5011267;28;20136;-67
2022/09/05 04:16:12;;;;;;;3.78;1.92;;;13.20;99.90;;;12.60;100.00;98673.16;5010480;28;20061;-67
2022/09/05 04:18:51;;;;;;;2.85;1.98;;;13.20;99.90;;;12.60;100.00;98665.34;5012443;28;20458;-68
2022/09/05 04:21:30;;;;;;;2.88;2.33;;;13.20;99.90;;;12.62;100.00;98673.09;5008388;28;20296;-67
2022/09/05 04:24:35;;;;;;;4.65;3.10;;;13.20;99.90;;;12.49;100.00;98670.88;5002000;28;20523;-66
2022/09/05 04:27:22;;;;;;;3.50;2.53;;;13.10;99.90;;;12.59;100.00;98684.47;5005600;28;20053;-68
2022/09/05 04:30:33;;;;;;;6.43;2.80;;;13.10;99.90;;;12.74;100.00;98689.16;5008343;28;20053;-68
2022/09/05 04:33:59;;;;;;;4.45;3.65;;;13.20;99.90;;;12.70;100.00;98697.13;5002682;28;20045;-68
2022/09/05 04:36:29;;;;;;;4.20;2.88;;;13.30;99.90;;;12.70;100.00;98705.81;5001793;28;20081;-68
2022/09/05 04:39:33;;;;;;;3.45;3.00;;;13.30;99.90;;;12.80;100.00;98705.50;5022376;28;20038;-68
2022/09/05 04:42:24;;;;;;;5.28;3.20;;;13.40;99.90;;;12.76;100.00;98716.00;4985548;28;20427;-68
2022/09/05 04:45:09;;;;;;;5.00;3.15;;;13.40;99.90;;;12.75;100.00;98716.09;5002744;28;20177;-68
2022/09/05 04:47:49;;;;;;;4.43;3.15;;;13.40;99.90;;;12.78;100.00;98723.78;5005060;28;20062;-68
2022/09/05 04:50:22;;;;;;;5.80;3.20;;;13.40;99.90;;;12.86;100.00;98728.72;5003709;28;20503;-66
2022/09/05 04:53:25;;;;;;;4.03;2.70;;;13.50;99.90;;;12.92;100.00;98728.53;5020764;28;20041;-67
2022/09/05 04:55:56;;;;;;;3.75;2.15;;;13.50;99.90;;;13.01;100.00;98740.41;5006756;28;20045;-66
2022/09/05 04:58:32;;;;;;;4.80;2.25;;;13.60;99.90;;;12.91;100.00;98737.28;5003004;28;20128;-67
2022/09/05 05:01:31;;;;;;;4.00;2.42;;;13.50;99.90;;;13.00;100.00;98744.78;5021003;28;20045;-68
2022/09/05 05:04:22;;;;;;;3.67;2.45;;;13.50;99.90;;;13.00;100.00;98743.91;5010251;28;20057;-66
2022/09/05 05:07:24;;;;;;;4.93;2.10;;;13.50;99.90;;;13.00;100.00;98744.78;5004781;28;20502;-67
2022/09/05 05:09:57;;;;;;;3.78;2.28;;;13.60;99.90;;;13.09;100.00;98741.88;5006323;28;20061;-68
2022/09/05 05:13:06;;;;;;;2.33;1.70;;;13.60;99.90;;;12.96;100.00;98740.56;5010418;28;20062;-68
2022/09/05 05:16:02;;;;;;;3.45;2.25;;;13.60;99.90;;;13.05;100.00;98736.81;5008512;28;20060;-68
2022/09/05 05:19:23;;;;;;;4.03;2.15;;;13.60;99.90;;;12.98;100.00;98738.75;5006409;28;20041;-68
2022/09/05 05:21:59;;;;;;;4.00;2.60;;;13.60;99.90;;;12.93;100.00;98738.91;5009154;28;20112;-68
2022/09/05 05:24:34;;;;;;;8.20;2.65;;;13.60;99.90;;;12.98;100.00;98747.44;5008165;28;20101;-67
2022/09/05 05:27:15;;;;;;;3.40;2.25;;;13.60;99.90;;;13.08;100.00;98753.19;5009432;28;20215;-68
2022/09/05 05:30:10;;;;;;;3.92;2.08;;;13.70;99.90;;;13.08;100.00;98753.19;5007699;28;20056;-67
2022/09/05 05:32:45;;;;;;;2.97;2.20;;;13.80;99.90;;;13.10;100.00;98751.38;5006760;28;20108;-68
2022/09/05 05:35:26;;;;;;;2.45;1.90;;;13.70;99.90;;;13.07;100.00;98751.47;5006206;28;20053;-67
2022/09/05 05:38:15;;;;;;;5.40;2.30;;;13.80;99.90;;;13.09;100.00;98751.41;5009392;28;20574;-68
2022/09/05 05:41:11;;;;;;;3.03;2.20;;;13.80;99.90;;;13.13;100.00;98753.03;5006996;28;20152;-68
2022/09/05 05:43:42;;;;;;;3.38;2.60;;;13.80;99.90;;;13.07;100.00;98755.81;5020111;28;20077;-69
2022/09/05 05:46:30;;;;;;;5.88;3.13;;;13.90;99.90;;;13.03;100.00;98749.03;5005175;28;20526;-69
2022/09/05 05:49:30;;;;;;;3.58;2.63;;;13.80;99.90;;;13.06;100.00;98751.53;5001190;28;20046;-69
2022/09/05 05:52:40;;;;;;;4.18;3.00;;;13.90;99.90;;;13.10;100.00;98759.19;5012539;28;20665;-69
2022/09/05 05:55:26;;;;;;;6.00;2.92;;;13.90;99.90;;;13.30;100.00;98758.53;5011079;28;20057;-70
2022/09/05 05:58:20;;;;;;;2.70;2.10;;;14.00;99.90;;;13.40;100.00;98759.06;5015129;28;20464;-69
2022/09/05 06:01:35;;;;;;;3.25;2.30;;;14.10;99.90;;;13.36;100.00;98753.13;5004719;28;20072;-68
2022/09/05 06:04:38;;;;;;;4.95;2.80;;;14.20;99.90;;;13.36;100.00;98750.53;5009513;28;20054;-68
2022/09/05 06:08:02;;;;;;;4.45;3.25;;;14.20;99.90;;;13.45;100.00;98756.28;5011091;28;20430;-68
2022/09/05 06:11:30;;;;;;;4.20;2.40;;;14.20;99.90;;;13.63;100.00;98763.47;5009259;28;20084;-68
2022/09/05 06:15:07;;;;;;;4.68;3.38;;;14.40;99.90;;;13.88;100.00;98754.75;5008648;28;20041;-68
2022/09/05 06:18:10;;;;;;;6.45;4.82;;;14.60;99.90;;;14.01;100.00;98761.22;5008963;28;20132;-68
2022/09/05 06:21:27;;;;;;;9.23;5.57;;;14.80;99.90;;;13.91;100.00;98758.09;5005881;28;20046;-68
2022/09/05 06:25:00;;;;;;;9.30;4.88;;;15.00;99.90;;;14.08;100.00;98764.44;5002311;28;20069;-68
2022/09/05 06:28:24;;;;;;;5.50;3.55;;;15.10;99.90;;;14.48;100.00;98781.19;5002929;28;20223;-66
2022/09/05 06:31:26;;;;;;;7.53;4.57;;;15.30;99.90;;;14.72;100.00;98779.41;5004433;28;20054;-68
2022/09/05 06:34:03;;;;;;;8.23;4.55;;;15.50;99.90;;;14.94;100.00;98775.00;5018757;28;20422;-68
2022/09/05 06:36:48;;;;;;;;;;;15.80;99.90;;;15.04;100.00;98780.69;5006158;28;20056;-68
2022/09/05 06:39:34;;;;;;;6.22;4.18;;;16.00;99.90;;;15.16;100.00;98779.31;5002189;28;19925;-68
2022/09/05 06:42:28;;;;;;;6.18;4.40;;;16.10;99.90;;;15.52;100.00;98781.31;4995154;28;20119;-67
2022/09/05 06:45:48;;;;;;;8.85;4.72;;;16.30;99.90;;;15.71;100.00;98766.50;5002608;28;20049;-67
2022/09/05 06:48:45;;;;;;;9.15;6.22;;;16.50;99.90;;;15.96;100.00;98765.41;5005423;28;20053;-68
2022/09/05 06:52:03;;;;;;;9.43;5.18;;;16.70;99.90;;;16.16;100.00;98765.34;5004118;28;20719;-67
2022/09/05 06:55:14;;;;;;;42.50;22.73;;;17.00;99.90;;;16.48;100.00;98768.22;5001828;28;20038;-69
2022/09/05 06:58:09;;;;;;;43.50;22.75;;;17.20;99.90;;;16.75;100.00;98766.03;5001819;28;20161;-68
2022/09/05 07:00:47;;;;;;;25.27;13.75;;;17.50;99.90;;;16.96;100.00;98752.84;5008948;28;20148;-67
2022/09/05 07:03:48;;;;;;;24.15;12.20;;;17.70;99.90;;;17.27;100.00;98754.78;5000654;28;20050;-69
2022/09/05 07:06:36;;;;;;;29.90;15.05;;;17.80;99.90;;;17.48;100.00;98743.16;5001968;28;20050;-70
2022/09/05 07:09:50;;;;;;;22.60;12.40;;;18.10;99.90;;;17.65;100.00;98718.66;5002642;28;20056;-70
2022/09/05 07:12:31;;;;;;;11.48;6.30;;;18.30;99.90;;;17.75;100.00;98708.50;5004988;28;20251;-68
2022/09/05 07:15:26;;;;;;;5.50;3.42;;;18.40;99.90;;;17.84;100.00;98707.19;4982946;28;20049;-69
2022/09/05 07:18:07;;;;;;;5.78;2.20;;;18.50;99.90;;;17.98;100.00;98710.75;5003733;28;20052;-69
2022/09/05 07:20:56;;;;;;;3.33;1.65;;;18.70;99.90;;;18.20;100.00;98696.44;5006054;28;20058;-68
2022/09/05 07:23:48;;;;;;;3.35;2.05;;;18.90;99.90;;;18.36;100.00;98680.66;4998665;28;20090;-68
2022/09/05 07:26:42;;;;;;;6.18;2.88;;;19.10;99.90;;;18.49;100.00;98659.75;5003521;28;20064;-68
2022/09/05 07:29:26;;;;;;;6.78;3.80;;;19.10;99.90;;;18.64;100.00;98643.09;5005370;28;20056;-68
2022/09/05 07:31:55;;;;;;;3.20;2.00;;;19.20;99.90;;;18.76;100.00;98623.09;5002232;28;20132;-68
2022/09/05 07:34:34;;;;;;;6.78;3.05;;;19.30;99.90;;;18.83;100.00;98621.84;5002723;28;20050;-68
2022/09/05 07:37:34;;;;;;;4.90;2.50;;;19.60;99.90;;;18.96;100.00;98611.44;5004379;28;20595;-69
2022/09/05 07:40:09;;;;;;;6.25;2.83;;;19.60;99.90;;;19.19;100.00;98596.88;5003655;28;20129;-69
2022/09/05 07:43:15;;;;;;;7.80;2.88;;;19.80;99.90;;;19.43;100.00;98574.28;5003847;28;21011;-68
2022/09/05 07:46:03;;;;;;;4.05;2.58;;;20.00;99.90;;;19.59;100.00;98566.28;5003823;28;20082;-70
2022/09/05 07:48:35;;;;;;;6.93;2.33;;;20.20;99.90;;;19.68;100.00;98549.00;5000527;28;20053;-70
2022/09/05 07:51:06;;;;;;;4.90;1.63;;;20.40;99.90;;;19.82;100.00;98527.09;5004291;28;20051;-70
2022/09/05 07:54:00;;;;;;;4.28;1.75;;;20.40;99.90;;;19.99;100.00;98512.81;5002761;28;20081;-70
2022/09/05 07:56:58;;;;;;;3.65;1.75;;;20.60;99.90;;;20.18;100.00;98500.06;5015796;28;20507;-69
2022/09/05 07:59:52;;;;;;;5.53;1.70;;;20.80;99.90;;;20.42;100.00;98494.09;4996957;28;20041;-70
2022/09/05 08:02:19;;;;;;;5.25;1.83;;;21.20;99.90;;;20.57;100.00;98482.56;5017363;28;20152;-70
2022/09/05 08:04:46;;;;;;;6.38;1.95;;;21.60;99.90;;;20.80;100.00;98473.03;5003394;28;20046;-70
2022/09/05 08:07:18;;;;;;;5.63;1.70;;;22.10;99.90;;;21.05;100.00;98458.94;5002727;28;20061;-70
2022/09/05 08:10:13;;;;;;;4.07;1.50;;;22.50;99.90;;;21.27;100.00;98452.94;4999520;28;20905;-70
2022/09/05 08:13:13;;;;;;;6.25;1.50;;;23.00;99.90;;;22.06;100.00;98416.31;4997898;28;20046;-70
2022/09/05 08:15:55;;;;;;;2.63;1.45;;;23.50;99.90;;;22.48;100.00;98370.81;5000279;28;20046;-70
2022/09/05 08:19:05;;;;;;;2.85;1.40;;;23.90;99.90;;;22.94;100.00;98335.34;5003212;28;20057;-70
2022/09/05 08:21:48;;;;;;;2.17;1.20;;;24.40;99.90;;;23.86;100.00;98287.19;5019104;28;20589;-68
2022/09/05 08:24:32;;;;;;;1.73;0.90;;;24.80;99.90;;;24.16;100.00;98238.59;5017083;28;20596;-68
2022/09/05 08:27:19;;;;;;;1.92;1.00;;;25.10;99.90;;;25.18;100.00;98206.41;4998367;28;20499;-70
2022/09/05 08:29:56;;;;;;;2.40;1.10;;;25.40;99.90;;;25.67;100.00;98168.13;5001167;28;20136;-70
2022/09/05 08:33:08;;;;;;;3.42;0.90;;;25.90;99.90;;;26.58;100.00;98127.41;5003788;28;20388;-69
2022/09/05 08:35:42;;;;;;;3.08;0.93;;;26.50;99.90;;;26.91;100.00;98111.69;5001703;28;20046;-69
2022/09/05 08:38:13;;;;;;;4.63;0.98;;;27.10;99.90;;;27.92;100.00;98100.44;5004159;28;20049;-69
2022/09/05 08:40:54;;;;;;;2.78;0.93;;;27.60;99.90;;;27.51;100.00;98090.44;5003458;28;20060;-69
2022/09/05 08:43:43;;;;;;;3.75;1.10;;;28.00;99.90;;;27.40;100.00;98081.88;5002833;28;20061;-69
2022/09/05 08:46:48;;;;;;;1.15;0.77;;;28.10;99.90;;;27.89;100.00;98052.72;5001647;28;20084;-69
2022/09/05 08:49:32;;;;;;;4.03;0.75;;;28.10;99.90;;;27.67;100.00;98041.66;4997619;28;20522;-69
2022/09/05 08:52:26;;;;;;;2.38;0.70;;;28.30;99.90;;;27.56;100.00;98044.63;5000774;28;20061;-69
2022/09/05 08:54:59;;;;;;;3.10;0.70;;;28.50;99.90;;;28.71;100.00;98026.91;4998444;28;20141;-69
2022/09/05 08:57:45;;;;;;;1.73;0.60;;;28.50;99.90;;;29.30;100.00;98036.47;5002028;28;20045;-69
2022/09/05 09:00:18;;;;;;;1.45;0.65;;;29.20;99.90;;;27.59;100.00;98027.44;5001772;28;20128;-69
2022/09/05 09:03:10;;;;;;;1.98;0.70;;;29.50;99.90;;;27.92;100.00;98031.06;5002445;28;20054;-69
2022/09/05 09:06:03;;;;;;;1.92;0.70;;;29.60;99.90;;;28.85;100.00;98014.72;5002738;28;20643;-69
2022/09/05 09:08:58;;;;;;;2.65;0.90;;;29.50;99.90;;;28.66;100.00;98028.44;4999330;28;20157;-69
2022/09/05 09:11:50;;;;;;;1.42;0.90;;;29.40;99.90;;;28.26;100.00;98024.75;5001438;28;20046;-69
2022/09/05 09:14:56;;;;;;;3.47;0.95;;;29.50;99.90;;;28.58;100.00;98021.28;4998410;28;20132;-69
2022/09/05 09:17:44;;;;;;;3.53;0.80;;;29.70;99.90;;;28.73;100.00;98016.88;5002227;28;20099;-69
2022/09/05 09:20:48;;;;;;;4.03;1.10;;;30.10;99.90;;;27.37;100.00;98028.88;5002626;28;20125;-69
2022/09/05 09:23:42;;;;;;;2.15;0.82;;;29.70;99.90;;;27.57;100.00;98034.78;4998845;28;20053;-69
2022/09/05 09:26:21;;;;;;;3.17;1.00;;;29.30;99.90;;;27.47;100.00;98029.59;5001822;28;20084;-70
2022/09/05 09:29:09;;;;;;;4.07;1.10;;;29.00;99.90;;;27.00;100.00;98030.81;4999677;28;20420;-69
2022/09/05 09:32:00;;;;;;;2.47;0.90;;;29.00;99.90;;;26.85;100.00;98029.75;4996520;28;20747;-69
2022/09/05 09:34:33;;;;;;;3.00;1.10;;;29.00;99.90;;;27.32;100.00;98032.00;5003536;28;20050;-70
2022/09/05 09:37:26;;;;;;;3.33;0.90;;;29.10;99.90;;;27.45;100.00;98020.91;5003272;28;20578;-69
2022/09/05 09:41:03;;;;;;;4.13;1.10;;;29.30;99.90;;;28.00;100.00;98006.22;5006036;28;20373;-69
2022/09/05 09:44:05;;;;;;;3.60;1.38;;;29.60;99.90;;;27.63;100.00;98002.97;5000972;28;20054;-69
2022/09/05 09:46:48;;;;;;;3.47;1.27;;;29.40;99.90;;;27.65;100.00;98003.63;5002148;28;20140;-69
2022/09/05 09:50:11;;;;;;;1.40;0.88;;;29.30;99.90;;;28.14;100.00;98005.56;4999909;28;20068;-69
2022/09/05 09:53:13;;;;;;;2.38;0.82;;;29.80;99.90;;;29.03;100.00;97994.94;5001825;28;20050;-70
2022/09/05 09:56:21;;;;;;;3.95;1.02;;;30.40;99.90;;;29.06;100.00;97989.25;5006260;28;20084;-69
2022/09/05 09:59:02;;;;;;;3.70;0.90;;;;;;;29.08;100.00;97995.28;5004496;28;20056;-69
2022/09/05 10:01:59;;;;;;;3.75;0.90;;;;;;;28.80;100.00;97985.00;5006019;28;20137;-70
2022/09/05 10:05:20;;;;;;;1.67;0.80;;;;;;;28.92;100.00;97988.13;5005410;28;20046;-69
2022/09/05 10:08:39;;;;;;;1.67;0.90;;;;;;;30.14;100.00;97975.97;5002699;28;20057;-69
2022/09/05 10:11:53;;;;;;;2.85;1.17;;;;;;;29.64;100.00;97981.81;5003921;28;20297;-69
2022/09/05 10:14:49;;;;;;;1.42;0.80;;;;;;;29.00;100.00;97969.41;5003231;28;20057;-68
2022/09/05 10:17:44;;;;;;;2.25;0.90;;;;;;;28.73;100.00;97967.97;5015318;28;20060;-70
2022/09/05 10:20:24;;;;;;;1.70;0.95;;;;;;;28.83;100.00;97967.78;5000398;28;20133;-70
2022/09/05 10:23:39;;;;;;;4.50;0.98;;;31.20;99.90;;;28.77;100.00;97962.13;5016160;28;20054;-70
2022/09/05 10:27:03;;;;;;;2.15;1.00;;;31.40;99.90;;;29.33;100.00;97962.13;5005286;28;20128;-70
2022/09/05 10:29:48;;;;;;;3.88;1.17;;;;;;;29.86;100.00;97953.47;5004462;28;20145;-70
2022/09/05 10:32:23;;;;;;;1.13;0.77;;;32.40;97.20;;;29.39;100.00;97953.38;5005486;28;20153;-70
2022/09/05 10:35:25;;;;;;;4.95;1.20;;;32.40;97.30;;;29.80;100.00;97946.97;5017308;28;20049;-69
2022/09/05 10:38:13;;;;;;;2.72;1.20;;;32.00;97.30;;;29.30;100.00;97941.06;5000948;28;20472;-69
2022/09/05 10:40:46;;;;;;;3.72;1.00;;;31.60;96.80;;;29.33;100.00;97939.88;5006835;28;20045;-69
2022/09/05 10:43:45;;;;;;;2.28;0.80;;;31.90;97.20;;;29.65;100.00;97946.03;5005825;28;20049;-70
2022/09/05 10:46:45;;;;;;;8.32;1.20;;;31.90;96.50;;;29.48;100.00;97940.78;5001701;28;20073;-70
2022/09/05 10:49:26;;;;;;;8.23;0.80;;;31.60;96.00;;;30.02;100.00;97937.25;4991252;28;21940;-69
2022/09/05 10:52:20;;;;;;;3.15;0.70;;;31.60;94.80;;;29.54;100.00;97933.91;4994348;28;20053;-69
2022/09/05 10:55:02;;;;;;;5.57;1.10;;;31.80;93.80;;;30.30;100.00;97929.50;5005225;28;20487;-69
2022/09/05 10:58:05;;;;;;;25.52;2.50;;;31.50;91.00;;;30.30;100.00;97929.50;5002180;28;20111;-69
2022/09/05 11:01:05;;;;;;;2.20;1.00;;;31.20;91.40;;;29.96;100.00;97921.91;4998990;28;20176;-68
2022/09/05 11:03:55;;;;;;;32.95;4.75;;;30.70;92.50;;;30.22;100.00;97922.34;5001426;28;20054;-70
2022/09/05 11:06:42;;;;;;;3.42;0.82;;;30.50;93.20;;;30.18;100.00;97921.06;5000668;28;20061;-70
2022/09/05 11:09:39;;;;;;;2.35;0.60;;;30.50;92.60;;;29.70;100.00;97924.97;5019957;28;20137;-69
2022/09/05 11:12:52;;;;;;;1.42;0.60;;;30.50;92.00;;;29.07;100.00;97922.25;5019636;28;20054;-69
2022/09/05 11:15:56;;;;;;;3.10;0.60;;;30.20;92.40;;;27.78;100.00;97922.28;5005073;28;20605;-69
2022/09/05 11:18:55;;;;;;;1.75;0.55;;;29.70;90.60;;;28.73;100.00;97915.38;4996667;28;20116;-69
2022/09/05 11:21:37;;;;;;;;;;;29.20;91.30;;;29.39;100.00;97917.78;5005119;28;20077;-67
2022/09/05 11:24:46;;;;;;;1.63;0.60;;;29.20;92.40;;;29.23;100.00;97913.34;5004826;28;20280;-68
2022/09/05 11:27:35;;;;;;;1.50;0.50;;;29.20;92.20;;;28.38;99.18;97908.63;5003294;28;20480;-68
2022/09/05 11:30:23;;;;;;;1.73;0.60;;;29.10;89.20;;;27.47;100.00;97906.94;5000808;28;20045;-68
2022/09/05 11:33:26;;;;;;;1.15;0.57;;;28.80;89.20;;;28.26;100.00;97910.81;4999715;28;20058;-66
2022/09/05 11:36:44;;;;;;;2.47;0.60;;;28.60;90.90;;;27.56;100.00;97900.63;5003030;28;20476;-68
2022/09/05 11:40:08;;;;;;;6.05;0.82;;;28.40;90.30;;;27.34;100.00;97904.75;5002102;28;20050;-68
2022/09/05 11:43:32;;;;;;;1.70;0.60;;;28.20;91.60;;;28.03;100.00;97897.34;5002419;28;20046;-68
2022/09/05 11:46:32;;;;;;;2.03;0.70;;;28.20;93.40;;;27.02;100.00;97906.28;5002806;28;20104;-68
2022/09/05 11:49:31;;;;;;;1.67;0.50;;;28.30;91.20;;;27.84;100.00;97901.16;5001839;28;20054;-68
2022/09/05 11:52:22;;;;;;;2.78;0.63;;;28.20;91.20;;;27.87;100.00;97892.84;5002614;28;20139;-67
2022/09/05 11:55:36;;;;;;;2.35;0.70;;;28.20;91.50;;;27.88;100.00;97897.16;5004125;28;20042;-67
2022/09/05 11:59:03;;;;;;;1.42;0.63;;;28.30;91.00;;;28.35;100.00;97892.91;5016821;28;20200;-68
2022/09/05 12:02:04;;;;;;;2.30;0.50;;;28.50;92.80;;;28.19;100.00;97895.63;4939455;28;20130;-68
2022/09/05 12:04:53;;;;;;;1.20;0.60;;;28.80;88.50;;;28.25;100.00;97886.94;4938223;28;20142;-68
2022/09/05 12:08:23;;;;;;;4.45;0.50;;;28.90;89.80;;;27.13;100.00;97883.84;4997402;28;20073;-68
2022/09/05 12:11:05;;;;;;;1.55;0.65;;;28.60;88.60;;;27.52;100.00;97878.78;4998862;28;20449;-68
2022/09/05 12:13:54;;;;;;;2.80;0.60;;;28.40;89.90;;;27.98;100.00;97875.63;5003656;28;20137;-69
2022/09/05 12:16:40;;;;;;;1.27;0.60;;;28.60;91.00;;;28.76;100.00;97875.00;4999263;28;20096;-68
2022/09/05 12:19:33;;;;;;;0.90;0.43;;;28.90;91.80;;;28.26;100.00;97880.59;5002278;28;20080;-68